Portada
METAR-TAF:

METAR-TAF

Aeropuertos :

Aeropuerto Internacional Augusto C. Sandino

Managua, Nicaragua

latitud: 12-09N, longitud: 086-10W, altitud: 50 m

Observación

El informe se hizo hace 44 minutos, a las 09:00 UTC
Viento calma
Temperatura 26°C
Humedad 94%
Presión 1010 hPa
Visibilidad 10 km o más
Cielo nuboso a una altura de 2000 ft

METAR: MNMG 180900Z 00000KT 9999 BKN020 26/25 Q1009 A2982 2AC070 NOSIG

Hora: 03:44 (09:44 UTC)

Pronóstico

El informe se hizo hace 4 horas y 34 minutos, a las 05:10 UTC
Pronóstico válido del 18 a las 06 UTC al 19 a las 06 UTC
Viento 8 kt del sureste
Visibilidad 10 km o más
Escasas nubes a una altura de 2100 ft
Nubes dispersas a una altura de 7000 ft
Evolucionando progresivamente
del 18 a las 14 UTC al 18 a las 16 UTC
Viento 12 kt del este
Visibilidad 10 km o más
Nubes dispersas a una altura de 2000 ft

TAF: MNMG 180510Z 1806/1906 13008KT 9999 FEW021 SCT070 BECMG 1814/1816 10012KT 9999 SCT020

Observaciones y pronósticos meteorológicos de más de 4000 aeropuertos (mensajes METAR y TAF).

Los puntos amarillos y rojos representan las estaciones disponibles.

Ponga el ratón en el punto deseado para ver el nombre de la estación.

Haga clic para ver las observaciones y los pronósticos meteorológicos.

Para cambiar el mapa : haga clic en los botones verdes con una cruz de color negro para hacer un zoom, en el botón verde con un guión para alejar o en las flechas verdes para mapas adyacentes.


METAR-TAF: